createdAt,value
2019-03-30T00:00:05.700Z,1019.67
2019-03-30T00:01:05.683Z,1019.57
2019-03-30T00:02:05.696Z,1019.60
2019-03-30T00:03:05.670Z,1019.58
2019-03-30T00:04:05.662Z,1019.55
2019-03-30T00:05:05.647Z,1019.52
2019-03-30T00:06:05.632Z,1019.54
2019-03-30T00:07:05.637Z,1019.58
2019-03-30T00:08:05.616Z,1019.59
2019-03-30T00:09:05.604Z,1019.59
2019-03-30T00:10:05.597Z,1019.55
2019-03-30T00:11:05.585Z,1019.48
2019-03-30T00:12:05.610Z,1019.50
2019-03-30T00:13:05.555Z,1019.46
2019-03-30T00:14:05.569Z,1019.47
2019-03-30T00:15:05.543Z,1019.51
2019-03-30T00:16:05.526Z,1019.50
2019-03-30T00:17:05.517Z,1019.50
2019-03-30T00:18:05.604Z,1019.49
2019-03-30T00:19:05.494Z,1019.46
2019-03-30T00:20:05.493Z,1019.49
2019-03-30T00:21:05.475Z,1019.43
2019-03-30T00:22:05.476Z,1019.43
2019-03-30T00:23:05.453Z,1019.44
2019-03-30T00:24:05.469Z,1019.43
2019-03-30T00:25:05.435Z,1019.40
2019-03-30T00:26:05.417Z,1019.46
2019-03-30T00:27:05.405Z,1019.43
2019-03-30T00:28:05.402Z,1019.40
2019-03-30T00:29:05.422Z,1019.36
2019-03-30T00:30:05.380Z,1019.42
2019-03-30T00:31:05.376Z,1019.33
2019-03-30T00:32:05.374Z,1019.36
2019-03-30T00:33:05.352Z,1019.41
2019-03-30T00:34:05.339Z,1019.39
2019-03-30T00:35:05.352Z,1019.38
2019-03-30T00:36:05.317Z,1019.24
2019-03-30T00:37:05.333Z,1019.27
2019-03-30T00:38:05.286Z,1019.29
2019-03-30T00:39:05.280Z,1019.28
2019-03-30T00:40:05.280Z,1019.24
2019-03-30T00:41:05.264Z,1019.27
2019-03-30T00:42:05.254Z,1019.26
2019-03-30T00:43:05.261Z,1019.26
2019-03-30T00:44:05.228Z,1019.29
2019-03-30T00:45:05.235Z,1019.24
2019-03-30T00:46:05.205Z,1019.26
2019-03-30T00:47:05.198Z,1019.25
2019-03-30T00:48:05.181Z,1019.25
2019-03-30T00:49:05.175Z,1019.23
2019-03-30T00:50:05.201Z,1019.28
2019-03-30T00:51:05.151Z,1019.25
2019-03-30T00:52:05.140Z,1019.24
2019-03-30T00:53:05.142Z,1019.27
2019-03-30T00:54:05.125Z,1019.28
2019-03-30T00:55:05.118Z,1019.30
2019-03-30T00:56:05.128Z,1019.26
2019-03-30T00:57:05.083Z,1019.29
2019-03-30T00:58:05.078Z,1019.22
2019-03-30T00:59:05.063Z,1019.18
2019-03-30T01:00:05.057Z,1019.22
2019-03-30T01:01:05.082Z,1019.19
2019-03-30T01:02:05.037Z,1019.18
2019-03-30T01:03:05.030Z,1019.19
2019-03-30T01:04:05.013Z,1019.13
2019-03-30T01:05:05.003Z,1019.15
2019-03-30T01:06:04.999Z,1019.14
2019-03-30T01:07:05.006Z,1019.12
2019-03-30T01:08:04.973Z,1019.14
2019-03-30T01:09:04.962Z,1019.07
2019-03-30T01:10:04.941Z,1019.11
2019-03-30T01:11:04.962Z,1019.07
2019-03-30T01:12:04.925Z,1019.13
2019-03-30T01:13:04.918Z,1019.09
2019-03-30T01:14:04.907Z,1019.08
2019-03-30T01:15:04.904Z,1019.07
2019-03-30T01:16:04.899Z,1019.09
2019-03-30T01:17:04.887Z,1019.06
2019-03-30T01:18:04.861Z,1019.07
2019-03-30T01:19:04.847Z,1019.12
2019-03-30T01:20:04.840Z,1019.03
2019-03-30T01:21:04.859Z,1019.06
2019-03-30T01:22:04.822Z,1019.10
2019-03-30T01:23:04.811Z,1019.09
2019-03-30T01:24:04.799Z,1019.13
2019-03-30T01:25:04.789Z,1019.16
2019-03-30T01:26:04.791Z,1019.08
2019-03-30T01:27:04.791Z,1019.07
2019-03-30T01:28:04.761Z,1019.07
2019-03-30T01:29:04.739Z,1019.00
2019-03-30T01:30:04.731Z,1019.04
2019-03-30T01:31:04.726Z,1019.04
2019-03-30T01:32:04.735Z,1019.08
2019-03-30T01:33:04.698Z,1019.01
2019-03-30T01:34:04.686Z,1019.00
2019-03-30T01:35:04.750Z,1019.06
2019-03-30T01:36:04.663Z,1019.01
2019-03-30T01:37:04.693Z,1019.06
2019-03-30T01:38:04.648Z,1019.00
2019-03-30T01:39:04.637Z,1019.04
2019-03-30T01:40:04.623Z,1019.04
2019-03-30T01:41:04.616Z,1019.03
2019-03-30T01:42:04.610Z,1019.08
2019-03-30T01:43:04.614Z,1019.02
2019-03-30T01:44:04.587Z,1019.05
2019-03-30T01:45:04.574Z,1019.07
2019-03-30T01:46:04.556Z,1018.99
2019-03-30T01:47:04.549Z,1018.99
2019-03-30T01:48:04.556Z,1018.96
2019-03-30T01:49:04.550Z,1018.95
2019-03-30T01:50:16.697Z,1018.99
2019-03-30T01:51:05.510Z,1018.98
2019-03-30T01:52:04.500Z,1018.96
2019-03-30T01:53:04.484Z,1018.95
2019-03-30T01:54:04.470Z,1018.97
2019-03-30T01:55:04.497Z,1018.94
2019-03-30T01:56:04.459Z,1018.92
2019-03-30T01:57:04.440Z,1018.93
2019-03-30T01:58:04.429Z,1018.94
2019-03-30T01:59:04.435Z,1018.97
2019-03-30T02:00:04.408Z,1018.91
2019-03-30T02:01:04.402Z,1018.97
2019-03-30T02:02:04.394Z,1018.91
2019-03-30T02:03:04.438Z,1018.96
2019-03-30T02:04:04.394Z,1019.00
2019-03-30T02:05:04.357Z,1018.96
2019-03-30T02:06:04.343Z,1018.91
2019-03-30T02:07:04.333Z,1018.97
2019-03-30T02:08:04.320Z,1019.00
2019-03-30T02:09:04.343Z,1018.98
2019-03-30T02:10:04.310Z,1018.95
2019-03-30T02:11:04.288Z,1018.93
2019-03-30T02:12:04.281Z,1018.90
2019-03-30T02:13:04.279Z,1018.93
2019-03-30T02:14:04.264Z,1018.83
2019-03-30T02:15:04.279Z,1018.85
2019-03-30T02:16:04.242Z,1018.88
2019-03-30T02:17:04.223Z,1018.81
2019-03-30T02:18:04.219Z,1018.87
2019-03-30T02:19:04.202Z,1018.92
2019-03-30T02:20:04.208Z,1018.87
2019-03-30T02:21:04.188Z,1018.86
2019-03-30T02:22:04.189Z,1018.81
2019-03-30T02:23:04.172Z,1018.83
2019-03-30T02:24:04.156Z,1018.86
2019-03-30T02:25:04.164Z,1018.85
2019-03-30T02:26:04.149Z,1018.84
2019-03-30T02:27:04.125Z,1018.75
2019-03-30T02:28:06.937Z,1018.83
2019-03-30T02:29:04.104Z,1018.82
2019-03-30T02:30:04.117Z,1018.80
2019-03-30T02:31:04.098Z,1018.79
2019-03-30T02:32:04.152Z,1018.78
2019-03-30T02:33:04.066Z,1018.80
2019-03-30T02:34:04.053Z,1018.80
2019-03-30T02:35:04.045Z,1018.76
2019-03-30T02:36:04.046Z,1018.75
2019-03-30T02:37:04.022Z,1018.82
2019-03-30T02:38:04.030Z,1018.76
2019-03-30T02:39:03.989Z,1018.76
2019-03-30T02:40:03.982Z,1018.74
2019-03-30T02:41:03.980Z,1018.71
2019-03-30T02:42:03.969Z,1018.74
2019-03-30T02:43:03.954Z,1018.67
2019-03-30T02:44:03.972Z,1018.73
2019-03-30T02:45:03.936Z,1018.74
2019-03-30T02:46:03.926Z,1018.72
2019-03-30T02:47:03.922Z,1018.70
2019-03-30T02:48:03.907Z,1018.73
2019-03-30T02:49:03.892Z,1018.72
2019-03-30T02:50:03.899Z,1018.73
2019-03-30T02:51:03.865Z,1018.71
2019-03-30T02:52:03.853Z,1018.66
2019-03-30T02:53:03.853Z,1018.63
2019-03-30T02:54:03.902Z,1018.68
2019-03-30T02:55:03.841Z,1018.74
2019-03-30T02:56:03.829Z,1018.68
2019-03-30T02:57:03.809Z,1018.74
2019-03-30T02:58:03.809Z,1018.69
2019-03-30T02:59:03.815Z,1018.68
2019-03-30T03:00:03.794Z,1018.63
2019-03-30T03:01:03.786Z,1018.63
2019-03-30T03:02:03.784Z,1018.66
2019-03-30T03:03:03.744Z,1018.62
2019-03-30T03:04:03.752Z,1018.61
2019-03-30T03:05:03.735Z,1018.61
2019-03-30T03:06:03.739Z,1018.63
2019-03-30T03:07:03.709Z,1018.61
2019-03-30T03:08:03.694Z,1018.59
2019-03-30T03:09:03.684Z,1018.58
2019-03-30T03:10:03.688Z,1018.56
2019-03-30T03:11:04.672Z,1018.56
2019-03-30T03:12:03.677Z,1018.58
2019-03-30T03:13:03.702Z,1018.59
2019-03-30T03:14:03.632Z,1018.51
2019-03-30T03:15:03.626Z,1018.52
2019-03-30T03:16:03.613Z,1018.50
2019-03-30T03:17:03.626Z,1018.46
2019-03-30T03:18:03.599Z,1018.47
2019-03-30T03:19:03.588Z,1018.47
2019-03-30T03:20:03.571Z,1018.44
2019-03-30T03:21:08.032Z,1018.42
2019-03-30T03:22:04.545Z,1018.44
2019-03-30T03:23:03.554Z,1018.43
2019-03-30T03:24:03.528Z,1018.44
2019-03-30T03:25:03.531Z,1018.40
2019-03-30T03:26:03.530Z,1018.44
2019-03-30T03:27:03.500Z,1018.42
2019-03-30T03:28:03.487Z,1018.40
2019-03-30T03:29:03.483Z,1018.45
2019-03-30T03:30:03.460Z,1018.40
2019-03-30T03:31:03.499Z,1018.39
2019-03-30T03:32:03.451Z,1018.37
2019-03-30T03:33:03.617Z,1018.37
2019-03-30T03:34:03.438Z,1018.36
2019-03-30T03:35:03.432Z,1018.34
2019-03-30T03:36:03.425Z,1018.35
2019-03-30T03:37:03.417Z,1018.36
2019-03-30T03:38:03.387Z,1018.33
2019-03-30T03:39:03.381Z,1018.31
2019-03-30T03:40:03.374Z,1018.34
2019-03-30T03:41:03.366Z,1018.32
2019-03-30T03:42:03.366Z,1018.33
2019-03-30T03:43:03.328Z,1018.26
2019-03-30T03:44:03.317Z,1018.34
2019-03-30T03:45:03.317Z,1018.32
2019-03-30T03:46:03.309Z,1018.28
2019-03-30T03:47:03.308Z,1018.34
2019-03-30T03:48:03.282Z,1018.21
2019-03-30T03:49:03.308Z,1018.30
2019-03-30T03:50:03.266Z,1018.28
2019-03-30T03:51:03.371Z,1018.31
2019-03-30T03:52:03.251Z,1018.23
2019-03-30T03:53:03.238Z,1018.26
2019-03-30T03:54:03.241Z,1018.24
2019-03-30T03:55:03.204Z,1018.26
2019-03-30T03:56:03.193Z,1018.26
2019-03-30T03:57:03.256Z,1018.20
2019-03-30T03:58:03.184Z,1018.22
2019-03-30T03:59:03.192Z,1018.23
2019-03-30T04:00:03.215Z,1018.15
2019-03-30T04:01:03.172Z,1018.13
2019-03-30T04:02:03.147Z,1018.14
2019-03-30T04:03:03.149Z,1018.15
2019-03-30T04:04:03.127Z,1018.14
2019-03-30T04:05:03.124Z,1018.22
2019-03-30T04:06:03.096Z,1018.23
2019-03-30T04:07:03.102Z,1018.22
2019-03-30T04:08:03.078Z,1018.24
2019-03-30T04:09:03.069Z,1018.27
2019-03-30T04:10:03.102Z,1018.18
2019-03-30T04:11:03.063Z,1018.20
2019-03-30T04:12:03.041Z,1018.23
2019-03-30T04:13:06.781Z,1018.21
2019-03-30T04:14:03.021Z,1018.16
2019-03-30T04:15:02.999Z,1018.16
2019-03-30T04:16:03.021Z,1018.13
2019-03-30T04:17:02.992Z,1018.14
2019-03-30T04:18:03.003Z,1018.12
2019-03-30T04:19:02.962Z,1018.14
2019-03-30T04:20:02.952Z,1018.11
2019-03-30T04:21:02.983Z,1018.14
2019-03-30T04:22:02.941Z,1018.14
2019-03-30T04:23:02.931Z,1018.15
2019-03-30T04:24:02.915Z,1018.11
2019-03-30T04:25:02.907Z,1018.13
2019-03-30T04:26:02.914Z,1018.14
2019-03-30T04:27:02.877Z,1018.04
2019-03-30T04:28:02.869Z,1018.04
2019-03-30T04:29:02.917Z,1018.04
2019-03-30T04:30:02.865Z,1018.04
2019-03-30T04:31:02.862Z,1018.06
2019-03-30T04:32:02.838Z,1017.98
2019-03-30T04:33:02.834Z,1018.03
2019-03-30T04:34:02.809Z,1018.03
2019-03-30T04:35:02.800Z,1018.01
2019-03-30T04:36:02.787Z,1018.07
2019-03-30T04:37:02.814Z,1018.03
2019-03-30T04:38:02.772Z,1017.99
2019-03-30T04:39:02.755Z,1017.98
2019-03-30T04:40:02.752Z,1017.98
2019-03-30T04:41:02.736Z,1017.99
2019-03-30T04:42:02.732Z,1018.00
2019-03-30T04:43:02.748Z,1017.99
2019-03-30T04:44:02.715Z,1017.95
2019-03-30T04:45:02.693Z,1017.94
2019-03-30T04:46:02.680Z,1018.00
2019-03-30T04:47:02.707Z,1017.95
2019-03-30T04:48:02.662Z,1017.99
2019-03-30T04:49:02.658Z,1017.95
2019-03-30T04:50:02.654Z,1017.95
2019-03-30T04:51:02.635Z,1017.98
2019-03-30T04:52:02.618Z,1018.05
2019-03-30T04:53:02.633Z,1017.94
2019-03-30T04:54:02.603Z,1017.94
2019-03-30T04:55:02.594Z,1017.99
2019-03-30T04:56:02.587Z,1017.95
2019-03-30T04:57:02.570Z,1017.95
2019-03-30T04:58:02.596Z,1017.96
2019-03-30T04:59:02.545Z,1017.98
2019-03-30T05:00:02.543Z,1017.99
2019-03-30T05:01:02.533Z,1017.92
2019-03-30T05:02:02.529Z,1017.92
2019-03-30T05:03:02.513Z,1017.86
2019-03-30T05:04:02.521Z,1017.85
2019-03-30T05:05:02.486Z,1017.94
2019-03-30T05:06:02.478Z,1017.93
2019-03-30T05:07:02.472Z,1017.88
2019-03-30T05:08:02.493Z,1017.92
2019-03-30T05:09:02.449Z,1017.92
2019-03-30T05:10:02.433Z,1017.89
2019-03-30T05:11:02.423Z,1017.90
2019-03-30T05:12:02.415Z,1017.87
2019-03-30T05:13:02.413Z,1017.87
2019-03-30T05:14:02.419Z,1017.87
2019-03-30T05:15:02.390Z,1017.80
2019-03-30T05:16:02.378Z,1017.83
2019-03-30T05:17:02.370Z,1017.83
2019-03-30T05:18:02.360Z,1017.85
2019-03-30T05:19:02.362Z,1017.88
2019-03-30T05:20:02.335Z,1017.87
2019-03-30T05:21:02.328Z,1017.89
2019-03-30T05:22:11.973Z,1017.90
2019-03-30T05:23:03.298Z,1017.88
2019-03-30T05:24:02.319Z,1017.83
2019-03-30T05:25:02.304Z,1017.78
2019-03-30T05:26:02.329Z,1017.81
2019-03-30T05:27:02.267Z,1017.78
2019-03-30T05:28:02.255Z,1017.80
2019-03-30T05:29:02.242Z,1017.82
2019-03-30T05:30:02.253Z,1017.82
2019-03-30T05:31:02.232Z,1017.78
2019-03-30T05:32:02.208Z,1017.76
2019-03-30T05:33:06.005Z,1017.76
2019-03-30T05:34:02.189Z,1017.77
2019-03-30T05:35:02.203Z,1017.75
2019-03-30T05:36:02.187Z,1017.75
2019-03-30T05:37:02.159Z,1017.76
2019-03-30T05:38:02.142Z,1017.80
2019-03-30T05:39:02.146Z,1017.73
2019-03-30T05:40:02.157Z,1017.73
2019-03-30T05:41:02.116Z,1017.72
2019-03-30T05:42:02.099Z,1017.71
2019-03-30T05:43:02.105Z,1017.71
2019-03-30T05:44:02.077Z,1017.65
2019-03-30T05:45:02.098Z,1017.73
2019-03-30T05:46:02.082Z,1017.70
2019-03-30T05:47:02.051Z,1017.69
2019-03-30T05:48:02.040Z,1017.65
2019-03-30T05:49:02.027Z,1017.67
2019-03-30T05:50:02.014Z,1017.72
2019-03-30T05:51:02.023Z,1017.72
2019-03-30T05:52:01.993Z,1017.65
2019-03-30T05:53:01.995Z,1017.67
2019-03-30T05:54:01.979Z,1017.64
2019-03-30T05:55:01.969Z,1017.69
2019-03-30T05:56:01.971Z,1017.60
2019-03-30T05:57:01.965Z,1017.69
2019-03-30T05:58:01.936Z,1017.67
2019-03-30T05:59:01.929Z,1017.70
2019-03-30T06:00:01.917Z,1017.70
2019-03-30T06:01:01.910Z,1017.64
2019-03-30T06:02:01.918Z,1017.63
2019-03-30T06:03:01.894Z,1017.59
2019-03-30T06:04:01.871Z,1017.61
2019-03-30T06:05:03.686Z,1017.58
2019-03-30T06:06:01.851Z,1017.53
2019-03-30T06:07:01.873Z,1017.58
2019-03-30T06:08:01.830Z,1017.46
2019-03-30T06:09:01.816Z,1017.40
2019-03-30T06:10:01.804Z,1017.42
2019-03-30T06:11:11.166Z,1017.41
2019-03-30T06:12:01.785Z,1017.43
2019-03-30T06:13:01.798Z,1017.40
2019-03-30T06:14:01.810Z,1017.42
2019-03-30T06:15:01.764Z,1017.43
2019-03-30T06:16:01.751Z,1017.45
2019-03-30T06:17:01.739Z,1017.38
2019-03-30T06:18:01.756Z,1017.40
2019-03-30T06:19:01.709Z,1017.38
2019-03-30T06:20:01.704Z,1017.44
2019-03-30T06:21:01.719Z,1017.36
2019-03-30T06:22:01.678Z,1017.40
2019-03-30T06:23:01.670Z,1017.33
2019-03-30T06:24:01.662Z,1017.30
2019-03-30T06:25:01.654Z,1017.32
2019-03-30T06:26:01.648Z,1017.30
2019-03-30T06:27:01.657Z,1017.27
2019-03-30T06:28:01.622Z,1017.26
2019-03-30T06:29:01.614Z,1017.31
2019-03-30T06:30:01.600Z,1017.24
2019-03-30T06:31:01.582Z,1017.27
2019-03-30T06:32:01.571Z,1017.22
2019-03-30T06:33:01.583Z,1017.28
2019-03-30T06:34:01.547Z,1017.23
2019-03-30T06:35:01.546Z,1017.24
2019-03-30T06:36:01.554Z,1017.27
2019-03-30T06:37:01.524Z,1017.15
2019-03-30T06:38:01.530Z,1017.20
2019-03-30T06:39:01.497Z,1017.17
2019-03-30T06:40:01.496Z,1017.26
2019-03-30T06:41:01.485Z,1017.22
2019-03-30T06:42:01.476Z,1017.30
2019-03-30T06:43:01.487Z,1017.25
2019-03-30T06:44:01.444Z,1017.26
2019-03-30T06:45:01.429Z,1017.24
2019-03-30T06:46:01.420Z,1017.21
2019-03-30T06:47:01.421Z,1017.16
2019-03-30T06:48:01.409Z,1017.21
2019-03-30T06:49:01.838Z,1017.20
2019-03-30T06:50:01.389Z,1017.17
2019-03-30T06:51:01.371Z,1017.13
2019-03-30T06:52:01.366Z,1017.13
2019-03-30T06:53:01.348Z,1017.16
2019-03-30T06:54:01.364Z,1017.12
2019-03-30T06:55:01.334Z,1017.15
2019-03-30T06:56:01.329Z,1017.16
2019-03-30T06:57:01.313Z,1017.13
2019-03-30T06:58:01.298Z,1017.13
2019-03-30T06:59:01.290Z,1017.10
2019-03-30T07:00:01.297Z,1017.11
2019-03-30T07:01:01.268Z,1017.05
2019-03-30T07:02:01.257Z,1017.04
2019-03-30T07:03:01.253Z,1017.09
2019-03-30T07:04:01.253Z,1017.04
2019-03-30T07:05:01.226Z,1017.05
2019-03-30T07:06:01.209Z,1017.03
2019-03-30T07:07:01.205Z,1017.03
2019-03-30T07:08:01.190Z,1016.99
2019-03-30T07:09:01.211Z,1017.03
2019-03-30T07:10:01.191Z,1017.01
2019-03-30T07:11:01.173Z,1016.98
2019-03-30T07:12:01.144Z,1017.03
2019-03-30T07:13:01.141Z,1017.03
2019-03-30T07:14:01.127Z,1017.04
2019-03-30T07:15:01.135Z,1016.98
2019-03-30T07:16:01.107Z,1017.01
2019-03-30T07:17:01.827Z,1017.03
2019-03-30T07:18:01.093Z,1016.98
2019-03-30T07:19:01.072Z,1017.03
2019-03-30T07:20:01.086Z,1017.02
2019-03-30T07:21:01.075Z,1017.04
2019-03-30T07:22:01.050Z,1017.01
2019-03-30T07:23:11.923Z,1017.07
2019-03-30T07:24:02.016Z,1017.00
2019-03-30T07:25:01.021Z,1017.05
2019-03-30T07:26:01.011Z,1016.97
2019-03-30T07:27:00.994Z,1017.03
2019-03-30T07:28:00.981Z,1017.08
2019-03-30T07:29:00.966Z,1017.04
2019-03-30T07:30:00.962Z,1017.03
2019-03-30T07:31:00.967Z,1017.06
2019-03-30T07:32:00.937Z,1017.07
2019-03-30T07:33:00.928Z,1017.10
2019-03-30T07:34:00.919Z,1017.05
2019-03-30T07:35:00.902Z,1017.06
2019-03-30T07:36:00.925Z,1017.08
2019-03-30T07:37:00.883Z,1017.09
2019-03-30T07:38:00.876Z,1017.15
2019-03-30T07:39:00.878Z,1017.12
2019-03-30T07:40:00.849Z,1017.12
2019-03-30T07:41:00.855Z,1017.16
2019-03-30T07:42:00.857Z,1017.11
2019-03-30T07:43:00.820Z,1017.12
2019-03-30T07:44:00.810Z,1017.14
2019-03-30T07:45:00.805Z,1017.21
2019-03-30T07:46:00.787Z,1017.15
2019-03-30T07:47:00.793Z,1017.15
2019-03-30T07:48:00.765Z,1017.11
2019-03-30T07:49:00.775Z,1017.10
2019-03-30T07:50:00.750Z,1017.16
2019-03-30T07:51:00.737Z,1017.13
2019-03-30T07:52:00.747Z,1017.13
2019-03-30T07:53:00.713Z,1017.17
2019-03-30T07:54:00.703Z,1017.14
2019-03-30T07:55:00.698Z,1017.16
2019-03-30T07:56:08.146Z,1017.09
2019-03-30T07:57:07.463Z,1017.11
2019-03-30T07:58:01.710Z,1017.12
2019-03-30T07:59:00.654Z,1017.09
2019-03-30T08:00:00.644Z,1017.11
2019-03-30T08:01:00.626Z,1017.18
2019-03-30T08:02:00.616Z,1017.13
2019-03-30T08:03:00.633Z,1017.18
2019-03-30T08:04:00.613Z,1017.18
2019-03-30T08:05:00.595Z,1017.16
2019-03-30T08:06:00.579Z,1017.16
2019-03-30T08:07:00.562Z,1017.15
2019-03-30T08:08:00.553Z,1017.17
2019-03-30T08:09:00.559Z,1017.20
2019-03-30T08:10:00.538Z,1017.19
2019-03-30T08:11:00.525Z,1017.16
2019-03-30T08:12:00.514Z,1017.18
2019-03-30T08:13:00.515Z,1017.15
2019-03-30T08:14:00.523Z,1017.15
2019-03-30T08:15:00.480Z,1017.15
2019-03-30T08:16:00.478Z,1017.19
2019-03-30T08:17:00.474Z,1017.12
2019-03-30T08:18:00.460Z,1017.15
2019-03-30T08:19:00.479Z,1017.10
2019-03-30T08:20:00.442Z,1017.15
2019-03-30T08:21:00.421Z,1017.14
2019-03-30T08:22:00.417Z,1017.11
2019-03-30T08:23:00.416Z,1017.16
2019-03-30T08:24:00.423Z,1017.17
2019-03-30T08:25:00.403Z,1017.14
2019-03-30T08:26:00.398Z,1017.10
2019-03-30T08:27:00.394Z,1017.04
2019-03-30T08:28:00.351Z,1017.05
2019-03-30T08:29:00.339Z,1017.12
2019-03-30T08:30:00.399Z,1017.05
2019-03-30T08:31:00.339Z,1017.01
2019-03-30T08:32:00.340Z,1017.11
2019-03-30T08:33:00.296Z,1017.01
2019-03-30T08:34:00.291Z,1017.12
2019-03-30T08:35:00.411Z,1017.13
2019-03-30T08:36:00.303Z,1017.06
2019-03-30T08:37:00.271Z,1017.05
2019-03-30T08:38:00.254Z,1016.98
2019-03-30T08:39:00.247Z,1016.98
2019-03-30T08:40:00.432Z,1017.00
2019-03-30T08:41:00.255Z,1017.03
2019-03-30T08:42:00.207Z,1017.04
2019-03-30T08:43:00.218Z,1017.16
2019-03-30T08:44:00.195Z,1017.06
2019-03-30T08:45:00.362Z,1017.08
2019-03-30T08:46:00.198Z,1017.05
2019-03-30T08:47:00.176Z,1017.04
2019-03-30T08:48:00.141Z,1017.00
2019-03-30T08:49:00.138Z,1017.02
2019-03-30T08:50:00.356Z,1016.96
2019-03-30T08:51:00.106Z,1017.00
2019-03-30T08:52:00.117Z,1017.02
2019-03-30T08:53:00.098Z,1017.01
2019-03-30T08:54:00.101Z,1017.04
2019-03-30T08:55:00.149Z,1017.00
2019-03-30T08:56:00.065Z,1017.01
2019-03-30T08:57:00.053Z,1017.06
2019-03-30T08:58:00.046Z,1017.13
2019-03-30T08:59:00.050Z,1017.09
2019-03-30T09:00:00.024Z,1017.07
2019-03-30T09:01:00.006Z,1017.08
2019-03-30T09:01:59.998Z,1017.02
2019-03-30T09:02:59.993Z,1017.03
2019-03-30T09:04:00.018Z,1017.00
2019-03-30T09:04:59.981Z,1016.95
2019-03-30T09:05:59.969Z,1016.98
2019-03-30T09:06:59.950Z,1016.90
2019-03-30T09:07:59.945Z,1016.90
2019-03-30T09:08:59.951Z,1016.90
2019-03-30T09:09:59.941Z,1016.94
2019-03-30T09:10:59.919Z,1016.87
2019-03-30T09:11:59.896Z,1016.94
2019-03-30T09:12:59.888Z,1016.91
2019-03-30T09:13:59.894Z,1016.96
2019-03-30T09:14:59.871Z,1016.99
2019-03-30T09:15:59.862Z,1016.93
2019-03-30T09:16:59.861Z,1016.83
2019-03-30T09:17:59.855Z,1016.91
2019-03-30T09:18:59.854Z,1016.78
2019-03-30T09:19:59.814Z,1016.83
2019-03-30T09:20:59.812Z,1016.75
2019-03-30T09:21:59.804Z,1016.72
2019-03-30T09:22:59.784Z,1016.72
2019-03-30T09:24:09.651Z,1016.80
2019-03-30T09:25:00.806Z,1016.68
2019-03-30T09:25:59.759Z,1016.65
2019-03-30T09:26:59.754Z,1016.70
2019-03-30T09:27:59.745Z,1016.64
2019-03-30T09:28:59.737Z,1016.69
2019-03-30T09:29:59.721Z,1016.69
2019-03-30T09:30:59.729Z,1016.70
2019-03-30T09:32:13.329Z,1016.65
2019-03-30T09:33:00.685Z,1016.65
2019-03-30T09:33:59.680Z,1016.62
2019-03-30T09:34:59.672Z,1016.61
2019-03-30T09:35:59.696Z,1016.64
2019-03-30T09:36:59.652Z,1016.58
2019-03-30T09:37:59.634Z,1016.69
2019-03-30T09:38:59.633Z,1016.71
2019-03-30T09:39:59.622Z,1016.67
2019-03-30T09:40:59.619Z,1016.66
2019-03-30T09:41:59.632Z,1016.63
2019-03-30T09:42:59.605Z,1016.65
2019-03-30T09:43:59.573Z,1016.68
2019-03-30T09:44:59.568Z,1016.62
2019-03-30T09:45:59.555Z,1016.68
2019-03-30T09:46:59.575Z,1016.58
2019-03-30T09:47:59.542Z,1016.63
2019-03-30T09:48:59.538Z,1016.61
2019-03-30T09:50:02.382Z,1016.59
2019-03-30T09:50:59.508Z,1016.61
2019-03-30T09:51:59.544Z,1016.50
2019-03-30T09:52:59.502Z,1016.49
2019-03-30T09:53:59.483Z,1016.49
2019-03-30T09:54:59.472Z,1016.51
2019-03-30T09:55:59.462Z,1016.43
2019-03-30T09:56:59.458Z,1016.44
2019-03-30T09:57:59.475Z,1016.21
2019-03-30T09:58:59.440Z,1016.28
2019-03-30T09:59:59.435Z,1016.34
2019-03-30T10:00:59.420Z,1016.32
2019-03-30T10:01:59.406Z,1016.47
2019-03-30T10:03:00.279Z,1016.44
2019-03-30T10:03:59.413Z,1016.51
2019-03-30T10:05:00.403Z,1016.26
2019-03-30T10:05:59.449Z,1016.42
2019-03-30T10:06:59.360Z,1016.28
2019-03-30T10:07:59.388Z,1016.32
2019-03-30T10:08:59.394Z,1016.30
2019-03-30T10:09:59.337Z,1016.33
2019-03-30T10:10:59.324Z,1016.30
2019-03-30T10:11:59.314Z,1016.36
2019-03-30T10:12:59.301Z,1016.32
2019-03-30T10:13:59.287Z,1016.37
2019-03-30T10:14:59.304Z,1016.28
2019-03-30T10:15:59.275Z,1016.34
2019-03-30T10:16:59.251Z,1016.38
2019-03-30T10:17:59.292Z,1016.38
2019-03-30T10:18:59.314Z,1016.32
2019-03-30T10:20:04.747Z,1016.27
2019-03-30T10:21:00.230Z,1016.31
2019-03-30T10:21:59.213Z,1016.32
2019-03-30T10:22:59.215Z,1016.37
2019-03-30T10:24:00.198Z,1016.33
2019-03-30T10:24:59.234Z,1016.25
2019-03-30T10:25:59.177Z,1016.29
2019-03-30T10:26:59.155Z,1016.28
2019-03-30T10:27:59.157Z,1016.26
2019-03-30T10:28:59.141Z,1016.21
2019-03-30T10:29:59.127Z,1016.24
2019-03-30T10:30:59.117Z,1016.27
2019-03-30T10:32:00.004Z,1016.17
2019-03-30T10:32:59.124Z,1016.17
2019-03-30T10:33:59.144Z,1016.03
2019-03-30T10:34:59.104Z,1015.96
2019-03-30T10:35:59.072Z,1016.18
2019-03-30T10:36:59.047Z,1016.07
2019-03-30T10:37:59.055Z,1016.04
2019-03-30T10:38:59.038Z,1015.97
2019-03-30T10:39:59.042Z,1016.10
2019-03-30T10:40:59.033Z,1016.05
2019-03-30T10:41:59.000Z,1016.03
2019-03-30T10:42:58.994Z,1016.04
2019-03-30T10:43:59.000Z,1015.99
2019-03-30T10:44:58.986Z,1015.88
2019-03-30T10:45:58.986Z,1016.03
2019-03-30T10:46:58.960Z,1015.80
2019-03-30T10:47:58.947Z,1016.04
2019-03-30T10:48:58.941Z,1015.99
2019-03-30T10:49:59.371Z,1015.93
2019-03-30T10:50:58.925Z,1015.94
2019-03-30T10:51:58.919Z,1015.99
2019-03-30T10:52:58.903Z,1015.99
2019-03-30T10:53:58.901Z,1015.95
2019-03-30T10:54:58.933Z,1015.93
2019-03-30T10:55:58.903Z,1015.99
2019-03-30T10:56:58.863Z,1015.96
2019-03-30T10:57:59.080Z,1015.92
2019-03-30T10:58:58.841Z,1016.03
2019-03-30T10:59:58.859Z,1015.97
2019-03-30T11:00:58.840Z,1016.00
2019-03-30T11:01:58.805Z,1015.94
2019-03-30T11:02:58.807Z,1015.92
2019-03-30T11:03:58.796Z,1015.91
2019-03-30T11:04:58.795Z,1015.83
2019-03-30T11:05:58.801Z,1015.84
2019-03-30T11:06:58.769Z,1015.84
2019-03-30T11:07:58.742Z,1015.84
2019-03-30T11:08:58.736Z,1015.78
2019-03-30T11:09:58.728Z,1015.79
2019-03-30T11:10:58.818Z,1015.83
2019-03-30T11:11:58.722Z,1015.78
2019-03-30T11:12:58.694Z,1015.72
2019-03-30T11:13:58.684Z,1015.78
2019-03-30T11:14:58.681Z,1015.72
2019-03-30T11:15:58.674Z,1015.67
2019-03-30T11:16:58.701Z,1015.71
2019-03-30T11:17:58.667Z,1015.79
2019-03-30T11:18:58.657Z,1015.70
2019-03-30T11:19:58.625Z,1015.72
2019-03-30T11:20:58.617Z,1015.72
2019-03-30T11:21:58.746Z,1015.66
2019-03-30T11:22:58.605Z,1015.69
2019-03-30T11:23:58.623Z,1015.63
2019-03-30T11:25:07.172Z,1015.55
2019-03-30T11:25:59.571Z,1015.66
2019-03-30T11:26:58.918Z,1015.65
2019-03-30T11:27:58.552Z,1015.60
2019-03-30T11:28:59.344Z,1015.64
2019-03-30T11:29:58.564Z,1015.62
2019-03-30T11:30:58.565Z,1015.64
2019-03-30T11:31:59.561Z,1015.71
2019-03-30T11:32:58.535Z,1015.58
2019-03-30T11:33:58.509Z,1015.61
2019-03-30T11:34:58.497Z,1015.59
2019-03-30T11:35:58.481Z,1015.55
2019-03-30T11:36:59.331Z,1015.54
2019-03-30T11:37:58.509Z,1015.51
2019-03-30T11:38:58.440Z,1015.45
2019-03-30T11:39:58.437Z,1015.51
2019-03-30T11:40:58.453Z,1015.52
2019-03-30T11:41:58.444Z,1015.49
2019-03-30T11:42:58.428Z,1015.45
2019-03-30T11:43:58.425Z,1015.42
2019-03-30T11:44:58.380Z,1015.46
2019-03-30T11:45:58.375Z,1015.43
2019-03-30T11:46:58.369Z,1015.48
2019-03-30T11:47:58.376Z,1015.48
2019-03-30T11:48:58.356Z,1015.41
2019-03-30T11:49:58.349Z,1015.45
2019-03-30T11:50:59.333Z,1015.43
2019-03-30T11:51:58.349Z,1015.43
2019-03-30T11:52:58.366Z,1015.32
2019-03-30T11:53:58.831Z,1015.28
2019-03-30T11:54:58.330Z,1015.28
2019-03-30T11:55:58.296Z,1015.28
2019-03-30T11:57:07.911Z,1015.22
2019-03-30T11:57:58.250Z,1015.18
2019-03-30T11:58:58.269Z,1015.06
2019-03-30T11:59:58.260Z,1015.10
2019-03-30T12:00:58.264Z,1015.03
2019-03-30T12:01:58.230Z,1015.02
2019-03-30T12:02:58.276Z,1015.05
2019-03-30T12:03:58.202Z,1015.10
2019-03-30T12:04:58.195Z,1015.09